sensor_id;sensor_type;location;lat;lon;timestamp;pressure;altitude;pressure_sealevel;temperature;humidity
66762;BME280;53672;48.176;16.338;2022-10-03T00:01:15;99335.69;;;10.79;100.00
66762;BME280;53672;48.176;16.338;2022-10-03T00:06:29;99335.69;;;10.79;100.00
66762;BME280;53672;48.176;16.338;2022-10-03T00:11:43;99338.94;;;10.81;100.00
66762;BME280;53672;48.176;16.338;2022-10-03T00:16:52;99345.13;;;10.82;100.00
66762;BME280;53672;48.176;16.338;2022-10-03T00:22:11;99349.41;;;10.83;100.00
66762;BME280;53672;48.176;16.338;2022-10-03T00:27:17;99350.78;;;10.80;100.00
66762;BME280;53672;48.176;16.338;2022-10-03T00:32:39;99344.31;;;10.81;100.00
66762;BME280;53672;48.176;16.338;2022-10-03T00:37:46;99346.50;;;10.74;100.00
66762;BME280;53672;48.176;16.338;2022-10-03T00:48:51;99352.75;;;10.64;100.00
66762;BME280;53672;48.176;16.338;2022-10-03T00:54:14;99349.47;;;10.73;100.00
66762;BME280;53672;48.176;16.338;2022-10-03T00:59:29;99345.94;;;10.77;100.00
66762;BME280;53672;48.176;16.338;2022-10-03T01:04:49;99354.03;;;10.72;100.00
66762;BME280;53672;48.176;16.338;2022-10-03T01:10:00;99368.88;;;10.69;100.00
66762;BME280;53672;48.176;16.338;2022-10-03T01:15:20;99369.16;;;10.73;100.00
66762;BME280;53672;48.176;16.338;2022-10-03T01:20:31;99365.63;;;10.73;100.00
66762;BME280;53672;48.176;16.338;2022-10-03T01:25:45;99358.66;;;10.72;100.00
66762;BME280;53672;48.176;16.338;2022-10-03T01:30:54;99365.91;;;10.76;100.00
66762;BME280;53672;48.176;16.338;2022-10-03T01:36:02;99364.56;;;10.74;100.00
66762;BME280;53672;48.176;16.338;2022-10-03T01:41:12;99365.59;;;10.83;100.00
66762;BME280;53672;48.176;16.338;2022-10-03T01:46:19;99371.25;;;10.91;100.00
66762;BME280;53672;48.176;16.338;2022-10-03T01:51:25;99369.56;;;11.00;100.00
66762;BME280;53672;48.176;16.338;2022-10-03T01:56:32;99374.09;;;11.10;100.00
66762;BME280;53672;48.176;16.338;2022-10-03T02:01:45;99375.91;;;11.25;97.61
66762;BME280;53672;48.176;16.338;2022-10-03T02:06:52;99380.75;;;11.28;97.56
66762;BME280;53672;48.176;16.338;2022-10-03T02:12:03;99382.91;;;11.31;96.48
66762;BME280;53672;48.176;16.338;2022-10-03T02:17:13;99388.84;;;11.33;95.15
66762;BME280;53672;48.176;16.338;2022-10-03T02:22:29;99389.84;;;11.42;93.97
66762;BME280;53672;48.176;16.338;2022-10-03T02:39:01;99403.34;;;11.47;92.81
66762;BME280;53672;48.176;16.338;2022-10-03T02:44:32;99405.78;;;11.43;92.53
66762;BME280;53672;48.176;16.338;2022-10-03T02:50:02;99412.59;;;11.31;92.90
66762;BME280;53672;48.176;16.338;2022-10-03T02:55:46;99426.72;;;11.12;93.94
66762;BME280;53672;48.176;16.338;2022-10-03T03:01:24;99432.16;;;11.02;94.02
66762;BME280;53672;48.176;16.338;2022-10-03T03:07:10;99418.13;;;11.00;93.87
66762;BME280;53672;48.176;16.338;2022-10-03T03:12:47;99424.06;;;10.97;94.09
66762;BME280;53672;48.176;16.338;2022-10-03T03:18:01;99440.25;;;11.02;94.64
66762;BME280;53672;48.176;16.338;2022-10-03T03:23:18;99440.47;;;11.11;93.79
66762;BME280;53672;48.176;16.338;2022-10-03T03:28:32;99434.50;;;11.14;93.10
66762;BME280;53672;48.176;16.338;2022-10-03T03:33:57;99445.59;;;11.12;92.97
66762;BME280;53672;48.176;16.338;2022-10-03T03:39:13;99441.00;;;11.13;92.45
66762;BME280;53672;48.176;16.338;2022-10-03T03:44:42;99437.97;;;11.30;90.53
66762;BME280;53672;48.176;16.338;2022-10-03T03:49:59;99435.28;;;11.25;90.10
66762;BME280;53672;48.176;16.338;2022-10-03T03:55:20;99449.63;;;11.10;91.15
66762;BME280;53672;48.176;16.338;2022-10-03T04:00:33;99465.34;;;10.98;91.94
66762;BME280;53672;48.176;16.338;2022-10-03T04:05:50;99477.47;;;10.90;92.06
66762;BME280;53672;48.176;16.338;2022-10-03T04:11:04;99467.78;;;10.84;93.44
66762;BME280;53672;48.176;16.338;2022-10-03T04:16:21;99467.53;;;10.76;92.92
66762;BME280;53672;48.176;16.338;2022-10-03T04:21:37;99481.28;;;10.69;92.97
66762;BME280;53672;48.176;16.338;2022-10-03T04:26:52;99466.47;;;10.66;93.04
66762;BME280;53672;48.176;16.338;2022-10-03T04:32:07;99474.59;;;10.56;93.38
66762;BME280;53672;48.176;16.338;2022-10-03T04:37:17;99468.41;;;10.46;93.76
66762;BME280;53672;48.176;16.338;2022-10-03T04:42:35;99457.88;;;10.49;93.43
66762;BME280;53672;48.176;16.338;2022-10-03T04:47:42;99473.78;;;10.56;92.42
66762;BME280;53672;48.176;16.338;2022-10-03T04:52:50;99475.38;;;10.52;92.15
66762;BME280;53672;48.176;16.338;2022-10-03T04:58:01;99476.47;;;10.46;92.36
66762;BME280;53672;48.176;16.338;2022-10-03T05:03:13;99478.38;;;10.45;92.14
66762;BME280;53672;48.176;16.338;2022-10-03T05:08:22;99497.22;;;10.45;92.39
66762;BME280;53672;48.176;16.338;2022-10-03T05:13:38;99509.34;;;10.53;91.37
66762;BME280;53672;48.176;16.338;2022-10-03T05:18:46;99508.53;;;10.62;90.54
66762;BME280;53672;48.176;16.338;2022-10-03T05:23:55;99515.81;;;10.62;90.66
66762;BME280;53672;48.176;16.338;2022-10-03T05:29:05;99525.78;;;10.77;89.48
66762;BME280;53672;48.176;16.338;2022-10-03T05:34:19;99541.66;;;10.98;88.57
66762;BME280;53672;48.176;16.338;2022-10-03T05:39:26;99544.56;;;11.17;87.77
66762;BME280;53672;48.176;16.338;2022-10-03T05:44:40;99548.00;;;11.43;86.57
66762;BME280;53672;48.176;16.338;2022-10-03T05:50:03;99541.16;;;11.76;84.23
66762;BME280;53672;48.176;16.338;2022-10-03T05:55:33;99560.44;;;12.03;82.78
66762;BME280;53672;48.176;16.338;2022-10-03T06:00:55;99567.91;;;12.21;82.00
66762;BME280;53672;48.176;16.338;2022-10-03T06:06:16;99571.78;;;12.44;80.24
66762;BME280;53672;48.176;16.338;2022-10-03T06:11:33;99571.44;;;12.89;77.86
66762;BME280;53672;48.176;16.338;2022-10-03T06:16:52;99584.56;;;13.35;75.57
66762;BME280;53672;48.176;16.338;2022-10-03T06:34:00;99565.88;;;13.99;70.78
66762;BME280;53672;48.176;16.338;2022-10-03T06:50:50;99568.38;;;16.92;58.11
66762;BME280;53672;48.176;16.338;2022-10-03T06:56:25;99565.72;;;17.71;55.04
66762;BME280;53672;48.176;16.338;2022-10-03T07:01:49;99570.13;;;17.98;53.72
66762;BME280;53672;48.176;16.338;2022-10-03T07:07:16;99574.41;;;17.73;54.21
66762;BME280;53672;48.176;16.338;2022-10-03T07:18:00;99574.97;;;16.69;57.65
66762;BME280;53672;48.176;16.338;2022-10-03T07:23:39;99579.47;;;16.38;58.63
66762;BME280;53672;48.176;16.338;2022-10-03T07:29:07;99582.88;;;16.79;57.55
66762;BME280;53672;48.176;16.338;2022-10-03T07:40:24;99597.28;;;17.02;55.56
66762;BME280;53672;48.176;16.338;2022-10-03T07:45:36;99600.44;;;16.95;54.03
66762;BME280;53672;48.176;16.338;2022-10-03T07:50:48;99605.16;;;16.81;55.26
66762;BME280;53672;48.176;16.338;2022-10-03T07:56:08;99605.66;;;16.83;55.03
66762;BME280;53672;48.176;16.338;2022-10-03T08:01:34;99608.63;;;16.73;55.34
66762;BME280;53672;48.176;16.338;2022-10-03T08:06:39;99606.13;;;16.63;55.65
66762;BME280;53672;48.176;16.338;2022-10-03T08:24:03;99595.53;;;17.67;48.62
66762;BME280;53672;48.176;16.338;2022-10-03T08:34:55;99603.53;;;18.12;46.70
66762;BME280;53672;48.176;16.338;2022-10-03T08:40:38;99599.06;;;17.68;46.75
66762;BME280;53672;48.176;16.338;2022-10-03T08:45:55;99613.03;;;17.66;47.60
66762;BME280;53672;48.176;16.338;2022-10-03T08:51:37;99617.63;;;18.05;47.08
66762;BME280;53672;48.176;16.338;2022-10-03T08:57:11;99617.75;;;18.65;45.26
66762;BME280;53672;48.176;16.338;2022-10-03T09:08:24;99603.88;;;19.05;43.08
66762;BME280;53672;48.176;16.338;2022-10-03T09:25:22;99597.97;;;25.98;28.83
66762;BME280;53672;48.176;16.338;2022-10-03T09:30:39;99615.88;;;27.67;26.56
66762;BME280;53672;48.176;16.338;2022-10-03T09:53:07;99586.84;;;30.97;21.80
66762;BME280;53672;48.176;16.338;2022-10-03T09:58:35;99595.47;;;29.59;22.07
66762;BME280;53672;48.176;16.338;2022-10-03T10:09:49;99586.25;;;30.33;21.48
66762;BME280;53672;48.176;16.338;2022-10-03T10:15:12;99576.31;;;30.32;21.52
66762;BME280;53672;48.176;16.338;2022-10-03T10:20:40;99581.28;;;31.59;20.35
66762;BME280;53672;48.176;16.338;2022-10-03T10:38:03;99570.44;;;29.38;22.53
66762;BME280;53672;48.176;16.338;2022-10-03T10:55:24;99574.50;;;20.90;35.22
66762;BME280;53672;48.176;16.338;2022-10-03T11:00:38;99566.47;;;19.52;37.58
66762;BME280;53672;48.176;16.338;2022-10-03T11:06:01;99588.94;;;19.11;39.22
66762;BME280;53672;48.176;16.338;2022-10-03T11:17:18;99568.88;;;25.13;30.65
66762;BME280;53672;48.176;16.338;2022-10-03T11:22:44;99572.81;;;30.13;22.50
66762;BME280;53672;48.176;16.338;2022-10-03T11:34:18;99569.19;;;26.59;26.31
66762;BME280;53672;48.176;16.338;2022-10-03T11:39:36;99574.50;;;24.79;28.69
66762;BME280;53672;48.176;16.338;2022-10-03T11:44:41;99559.03;;;23.85;30.38
66762;BME280;53672;48.176;16.338;2022-10-03T11:50:04;99572.88;;;21.91;35.47
66762;BME280;53672;48.176;16.338;2022-10-03T11:55:23;99584.75;;;20.18;37.70
66762;BME280;53672;48.176;16.338;2022-10-03T12:00:25;99596.47;;;19.69;39.93
66762;BME280;53672;48.176;16.338;2022-10-03T12:11:01;99597.50;;;20.44;37.78
66762;BME280;53672;48.176;16.338;2022-10-03T12:16:08;99584.81;;;20.72;38.80
66762;BME280;53672;48.176;16.338;2022-10-03T12:21:17;99581.84;;;20.98;37.48
66762;BME280;53672;48.176;16.338;2022-10-03T12:26:26;99589.69;;;20.25;38.98
66762;BME280;53672;48.176;16.338;2022-10-03T12:31:33;99599.78;;;20.12;39.03
66762;BME280;53672;48.176;16.338;2022-10-03T12:36:47;99582.34;;;19.96;38.89
66762;BME280;53672;48.176;16.338;2022-10-03T12:41:56;99600.03;;;19.61;41.45
66762;BME280;53672;48.176;16.338;2022-10-03T12:47:16;99592.38;;;19.84;40.78
66762;BME280;53672;48.176;16.338;2022-10-03T12:52:25;99586.50;;;19.94;39.30
66762;BME280;53672;48.176;16.338;2022-10-03T12:57:52;99588.53;;;19.76;40.17
66762;BME280;53672;48.176;16.338;2022-10-03T13:03:15;99591.44;;;19.42;39.15
66762;BME280;53672;48.176;16.338;2022-10-03T13:08:37;99598.41;;;19.05;40.75
66762;BME280;53672;48.176;16.338;2022-10-03T13:13:50;99584.25;;;19.11;39.73
66762;BME280;53672;48.176;16.338;2022-10-03T13:18:58;99581.25;;;18.87;39.76
66762;BME280;53672;48.176;16.338;2022-10-03T13:24:04;99587.03;;;18.77;39.60
66762;BME280;53672;48.176;16.338;2022-10-03T13:29:21;99584.50;;;18.55;40.23
66762;BME280;53672;48.176;16.338;2022-10-03T13:34:27;99590.41;;;18.48;40.43
66762;BME280;53672;48.176;16.338;2022-10-03T13:39:40;99587.66;;;18.22;41.31
66762;BME280;53672;48.176;16.338;2022-10-03T13:44:48;99594.81;;;17.93;43.55
66762;BME280;53672;48.176;16.338;2022-10-03T13:49:52;99588.63;;;17.61;44.51
66762;BME280;53672;48.176;16.338;2022-10-03T13:55:19;99600.41;;;17.48;44.38
66762;BME280;53672;48.176;16.338;2022-10-03T14:00:23;99617.03;;;17.07;47.53
66762;BME280;53672;48.176;16.338;2022-10-03T14:05:42;99608.97;;;16.58;49.14
66762;BME280;53672;48.176;16.338;2022-10-03T14:11:01;99605.84;;;16.15;51.49
66762;BME280;53672;48.176;16.338;2022-10-03T14:16:11;99610.66;;;16.18;51.54
66762;BME280;53672;48.176;16.338;2022-10-03T14:21:38;99603.03;;;16.06;52.08
66762;BME280;53672;48.176;16.338;2022-10-03T14:26:48;99610.91;;;15.94;53.50
66762;BME280;53672;48.176;16.338;2022-10-03T14:31:56;99618.56;;;15.65;55.72
66762;BME280;53672;48.176;16.338;2022-10-03T14:37:03;99613.31;;;15.55;56.93
66762;BME280;53672;48.176;16.338;2022-10-03T14:42:36;99618.75;;;15.55;57.34
66762;BME280;53672;48.176;16.338;2022-10-03T14:47:41;99615.97;;;15.28;58.69
66762;BME280;53672;48.176;16.338;2022-10-03T14:52:44;99619.38;;;15.19;60.11
66762;BME280;53672;48.176;16.338;2022-10-03T14:57:50;99601.84;;;15.12;60.32
66762;BME280;53672;48.176;16.338;2022-10-03T15:02:53;99598.56;;;14.83;60.58
66762;BME280;53672;48.176;16.338;2022-10-03T15:07:53;99598.38;;;14.60;60.38
66762;BME280;53672;48.176;16.338;2022-10-03T15:13:01;99589.81;;;14.35;59.34
66762;BME280;53672;48.176;16.338;2022-10-03T15:18:04;99587.28;;;14.19;57.15
66762;BME280;53672;48.176;16.338;2022-10-03T15:23:06;99609.78;;;14.20;59.65
66762;BME280;53672;48.176;16.338;2022-10-03T15:28:14;99621.44;;;14.20;61.84
66762;BME280;53672;48.176;16.338;2022-10-03T15:33:23;99625.91;;;14.30;62.03
66762;BME280;53672;48.176;16.338;2022-10-03T15:38:32;99629.38;;;14.36;62.58
66762;BME280;53672;48.176;16.338;2022-10-03T15:43:42;99633.53;;;14.28;63.55
66762;BME280;53672;48.176;16.338;2022-10-03T15:48:44;99631.97;;;14.03;66.68
66762;BME280;53672;48.176;16.338;2022-10-03T15:53:52;99630.75;;;13.67;67.89
66762;BME280;53672;48.176;16.338;2022-10-03T15:59:00;99627.66;;;13.55;69.64
66762;BME280;53672;48.176;16.338;2022-10-03T16:04:03;99635.41;;;13.38;69.34
66762;BME280;53672;48.176;16.338;2022-10-03T16:09:10;99632.38;;;13.15;69.47
66762;BME280;53672;48.176;16.338;2022-10-03T16:14:17;99631.94;;;12.98;70.45
66762;BME280;53672;48.176;16.338;2022-10-03T16:19:30;99656.06;;;12.95;70.01
66762;BME280;53672;48.176;16.338;2022-10-03T16:24:35;99675.56;;;12.92;72.55
66762;BME280;53672;48.176;16.338;2022-10-03T16:29:44;99672.19;;;12.76;73.41
66762;BME280;53672;48.176;16.338;2022-10-03T16:34:48;99672.50;;;12.69;73.87
66762;BME280;53672;48.176;16.338;2022-10-03T16:39:54;99670.44;;;12.51;74.42
66762;BME280;53672;48.176;16.338;2022-10-03T16:44:58;99673.78;;;12.33;74.73
66762;BME280;53672;48.176;16.338;2022-10-03T16:49:59;99672.53;;;12.15;74.80
66762;BME280;53672;48.176;16.338;2022-10-03T16:55:03;99672.31;;;12.02;75.39
66762;BME280;53672;48.176;16.338;2022-10-03T17:00:13;99668.59;;;11.88;76.41
66762;BME280;53672;48.176;16.338;2022-10-03T17:05:16;99679.69;;;11.76;76.40
66762;BME280;53672;48.176;16.338;2022-10-03T17:10:24;99683.75;;;11.63;76.96
66762;BME280;53672;48.176;16.338;2022-10-03T17:15:29;99687.53;;;11.52;77.92
66762;BME280;53672;48.176;16.338;2022-10-03T17:20:38;99681.63;;;11.40;79.09
66762;BME280;53672;48.176;16.338;2022-10-03T17:25:48;99692.66;;;11.34;79.71
66762;BME280;53672;48.176;16.338;2022-10-03T17:30:53;99694.56;;;11.28;80.03
66762;BME280;53672;48.176;16.338;2022-10-03T17:36:01;99700.78;;;11.29;80.51
66762;BME280;53672;48.176;16.338;2022-10-03T17:41:12;99696.22;;;11.29;80.52
66762;BME280;53672;48.176;16.338;2022-10-03T17:46:20;99707.28;;;11.33;80.04
66762;BME280;53672;48.176;16.338;2022-10-03T17:51:34;99708.88;;;11.34;79.87
66762;BME280;53672;48.176;16.338;2022-10-03T17:56:42;99718.34;;;11.36;80.03
66762;BME280;53672;48.176;16.338;2022-10-03T18:01:49;99711.28;;;11.30;80.05
66762;BME280;53672;48.176;16.338;2022-10-03T18:06:51;99707.78;;;11.35;79.87
66762;BME280;53672;48.176;16.338;2022-10-03T18:12:01;99701.03;;;11.42;78.59
66762;BME280;53672;48.176;16.338;2022-10-03T18:17:09;99681.88;;;11.49;77.57
66762;BME280;53672;48.176;16.338;2022-10-03T18:22:15;99686.19;;;11.55;77.32
66762;BME280;53672;48.176;16.338;2022-10-03T18:27:35;99682.94;;;11.53;76.88
66762;BME280;53672;48.176;16.338;2022-10-03T18:32:43;99692.13;;;11.57;76.20
66762;BME280;53672;48.176;16.338;2022-10-03T18:38:12;99690.75;;;11.54;75.97
66762;BME280;53672;48.176;16.338;2022-10-03T18:43:25;99688.06;;;11.59;75.44
66762;BME280;53672;48.176;16.338;2022-10-03T18:48:32;99701.28;;;11.61;75.14
66762;BME280;53672;48.176;16.338;2022-10-03T18:53:36;99706.69;;;11.56;75.20
66762;BME280;53672;48.176;16.338;2022-10-03T18:58:41;99700.75;;;11.59;74.81
66762;BME280;53672;48.176;16.338;2022-10-03T19:03:48;99698.56;;;11.61;74.38
66762;BME280;53672;48.176;16.338;2022-10-03T19:08:53;99693.16;;;11.61;74.51
66762;BME280;53672;48.176;16.338;2022-10-03T19:13:59;99693.16;;;11.61;74.09
66762;BME280;53672;48.176;16.338;2022-10-03T19:19:06;99708.84;;;11.59;74.39
66762;BME280;53672;48.176;16.338;2022-10-03T19:24:12;99715.06;;;11.54;74.76
66762;BME280;53672;48.176;16.338;2022-10-03T19:29:18;99716.16;;;11.48;74.71
66762;BME280;53672;48.176;16.338;2022-10-03T19:34:25;99721.28;;;11.45;74.86
66762;BME280;53672;48.176;16.338;2022-10-03T19:39:29;99720.72;;;11.48;74.97
66762;BME280;53672;48.176;16.338;2022-10-03T19:44:31;99710.47;;;11.55;74.50
66762;BME280;53672;48.176;16.338;2022-10-03T19:49:43;99708.84;;;11.59;74.08
66762;BME280;53672;48.176;16.338;2022-10-03T19:54:51;99715.88;;;11.60;74.17
66762;BME280;53672;48.176;16.338;2022-10-03T19:59:55;99713.44;;;11.63;73.37
66762;BME280;53672;48.176;16.338;2022-10-03T20:04:59;99716.41;;;11.62;73.64
66762;BME280;53672;48.176;16.338;2022-10-03T20:10:12;99715.88;;;11.55;73.59
66762;BME280;53672;48.176;16.338;2022-10-03T20:15:19;99706.44;;;11.52;73.27
66762;BME280;53672;48.176;16.338;2022-10-03T20:20:24;99713.97;;;11.55;73.10
66762;BME280;53672;48.176;16.338;2022-10-03T20:25:30;99708.31;;;11.62;72.27
66762;BME280;53672;48.176;16.338;2022-10-03T20:30:36;99715.59;;;11.61;72.38
66762;BME280;53672;48.176;16.338;2022-10-03T20:35:51;99712.06;;;11.66;72.19
66762;BME280;53672;48.176;16.338;2022-10-03T20:40:56;99696.69;;;11.72;72.18
66762;BME280;53672;48.176;16.338;2022-10-03T20:46:11;99714.69;;;12.11;88.36
66762;BME280;53672;48.176;16.338;2022-10-03T20:51:21;99716.16;;;13.31;72.22
66762;BME280;53672;48.176;16.338;2022-10-03T20:56:28;99707.19;;;12.96;67.56
66762;BME280;53672;48.176;16.338;2022-10-03T21:01:34;99710.22;;;12.46;69.16
66762;BME280;53672;48.176;16.338;2022-10-03T21:06:51;99707.09;;;12.18;70.59
66762;BME280;53672;48.176;16.338;2022-10-03T21:11:53;99709.88;;;11.98;70.99
66762;BME280;53672;48.176;16.338;2022-10-03T21:16:54;99700.19;;;11.82;71.77
66762;BME280;53672;48.176;16.338;2022-10-03T21:21:58;99710.47;;;11.70;72.35
66762;BME280;53672;48.176;16.338;2022-10-03T21:27:03;99705.63;;;11.57;72.71
66762;BME280;53672;48.176;16.338;2022-10-03T21:32:18;99719.66;;;11.49;73.31
66762;BME280;53672;48.176;16.338;2022-10-03T21:37:26;99721.81;;;11.42;73.85
66762;BME280;53672;48.176;16.338;2022-10-03T21:42:36;99715.06;;;11.44;74.38
66762;BME280;53672;48.176;16.338;2022-10-03T21:47:46;99711.56;;;11.49;74.56
66762;BME280;53672;48.176;16.338;2022-10-03T21:53:03;99708.88;;;11.54;74.80
66762;BME280;53672;48.176;16.338;2022-10-03T21:58:18;99708.31;;;11.57;74.93
66762;BME280;53672;48.176;16.338;2022-10-03T22:03:27;99716.69;;;11.60;75.17
66762;BME280;53672;48.176;16.338;2022-10-03T22:08:32;99715.59;;;11.61;75.22
66762;BME280;53672;48.176;16.338;2022-10-03T22:13:36;99712.06;;;11.66;75.25
66762;BME280;53672;48.176;16.338;2022-10-03T22:18:59;99703.44;;;11.69;75.23
66762;BME280;53672;48.176;16.338;2022-10-03T22:24:07;99704.28;;;11.75;75.39
66762;BME280;53672;48.176;16.338;2022-10-03T22:29:15;99698.06;;;11.74;75.16
66762;BME280;53672;48.176;16.338;2022-10-03T22:34:29;99704.28;;;11.75;75.40
66762;BME280;53672;48.176;16.338;2022-10-03T22:39:35;99705.88;;;11.76;75.63
66762;BME280;53672;48.176;16.338;2022-10-03T22:44:36;99692.63;;;11.79;75.70
66762;BME280;53672;48.176;16.338;2022-10-03T22:49:43;99690.47;;;11.81;75.62
66762;BME280;53672;48.176;16.338;2022-10-03T22:54:46;99694.53;;;11.84;75.47
66762;BME280;53672;48.176;16.338;2022-10-03T22:59:52;99688.84;;;11.75;75.92
66762;BME280;53672;48.176;16.338;2022-10-03T23:04:56;99685.91;;;11.72;76.06
66762;BME280;53672;48.176;16.338;2022-10-03T23:15:23;99683.50;;;11.40;77.81
66762;BME280;53672;48.176;16.338;2022-10-03T23:20:42;99682.44;;;11.26;78.67
66762;BME280;53672;48.176;16.338;2022-10-03T23:25:53;99689.72;;;11.15;79.29
66762;BME280;53672;48.176;16.338;2022-10-03T23:30:58;99677.59;;;11.02;80.24
66762;BME280;53672;48.176;16.338;2022-10-03T23:36:02;99661.69;;;10.96;80.76
66762;BME280;53672;48.176;16.338;2022-10-03T23:41:08;99672.19;;;10.87;81.04
66762;BME280;53672;48.176;16.338;2022-10-03T23:46:12;99681.63;;;10.75;81.83
66762;BME280;53672;48.176;16.338;2022-10-03T23:51:16;99674.06;;;10.72;82.33
66762;BME280;53672;48.176;16.338;2022-10-03T23:56:31;99678.38;;;10.73;81.90
